createdAt,value
2023-05-22T00:01:58.122Z,17.92
2023-05-22T00:05:01.484Z,17.13
2023-05-22T00:08:06.573Z,17.70
2023-05-22T00:11:09.906Z,18.38
2023-05-22T00:14:32.777Z,17.27
2023-05-22T00:17:36.597Z,18.52
2023-05-22T00:20:40.989Z,18.98
2023-05-22T00:23:46.104Z,16.42
2023-05-22T00:26:49.401Z,15.57
2023-05-22T00:29:52.550Z,16.95
2023-05-22T00:32:56.712Z,16.45
2023-05-22T00:35:59.865Z,15.15
2023-05-22T00:39:04.728Z,22.80
2023-05-22T00:42:08.044Z,16.55
2023-05-22T00:45:12.528Z,19.50
2023-05-22T00:48:16.546Z,16.95
2023-05-22T00:51:21.290Z,18.02
2023-05-22T00:54:25.881Z,18.70
2023-05-22T00:57:29.184Z,19.00
2023-05-22T01:00:34.093Z,18.15
2023-05-22T01:03:42.395Z,15.00
2023-05-22T01:06:47.718Z,17.45
2023-05-22T01:09:53.295Z,21.60
2023-05-22T01:13:05.462Z,19.90
2023-05-22T01:16:19.198Z,18.60
2023-05-22T01:19:47.379Z,18.77
2023-05-22T01:23:17.807Z,17.75
2023-05-22T01:26:41.884Z,19.52
2023-05-22T01:29:49.298Z,17.42
2023-05-22T01:32:57.912Z,19.50
2023-05-22T01:36:03.381Z,18.05
2023-05-22T01:39:07.699Z,20.73
2023-05-22T01:42:11.356Z,17.77
2023-05-22T01:45:15.608Z,18.48
2023-05-22T01:48:20.570Z,17.20
2023-05-22T01:51:34.503Z,18.55
2023-05-22T01:54:43.472Z,21.23
2023-05-22T01:57:52.445Z,17.60
2023-05-22T02:00:57.454Z,18.23
2023-05-22T02:04:03.019Z,17.48
2023-05-22T02:07:08.293Z,18.55
2023-05-22T02:10:13.541Z,18.45
2023-05-22T02:13:16.888Z,18.98
2023-05-22T02:16:22.163Z,18.23
2023-05-22T02:19:26.954Z,20.98
2023-05-22T02:22:30.097Z,19.75
2023-05-22T02:25:33.752Z,19.40
2023-05-22T02:28:36.996Z,21.40
2023-05-22T02:31:40.577Z,20.02
2023-05-22T02:34:45.262Z,19.73
2023-05-22T02:37:50.946Z,19.08
2023-05-22T02:40:55.023Z,18.50
2023-05-22T02:43:58.541Z,19.40
2023-05-22T02:47:01.896Z,20.27
2023-05-22T02:50:08.448Z,22.92
2023-05-22T02:53:13.049Z,17.35
2023-05-22T02:56:16.819Z,20.92
2023-05-22T02:59:36.768Z,18.45
2023-05-22T03:02:40.099Z,20.20
2023-05-22T03:05:46.944Z,19.58
2023-05-22T03:08:50.818Z,19.48
2023-05-22T03:11:54.056Z,16.90
2023-05-22T03:14:57.537Z,21.55
2023-05-22T03:18:00.922Z,20.30
2023-05-22T03:21:06.598Z,19.52
2023-05-22T03:24:10.027Z,19.10
2023-05-22T03:27:16.321Z,23.10
2023-05-22T03:30:19.932Z,20.67
2023-05-22T03:34:34.492Z,19.30
2023-05-22T03:37:38.631Z,18.98
2023-05-22T03:40:42.042Z,18.83
2023-05-22T03:43:46.975Z,21.92
2023-05-22T03:46:50.451Z,20.60
2023-05-22T03:49:55.023Z,20.85
2023-05-22T03:52:58.940Z,21.35
2023-05-22T03:56:02.210Z,18.92
2023-05-22T03:59:25.149Z,18.13
2023-05-22T04:02:30.206Z,18.90
2023-05-22T04:05:35.241Z,21.10
2023-05-22T04:08:38.730Z,21.45
2023-05-22T04:11:42.679Z,20.48
2023-05-22T04:14:46.290Z,20.30
2023-05-22T04:17:50.849Z,21.88
2023-05-22T04:20:55.679Z,22.80
2023-05-22T04:23:58.848Z,21.15
2023-05-22T04:27:02.367Z,20.90
2023-05-22T04:30:07.305Z,20.23
2023-05-22T04:33:10.563Z,22.40
2023-05-22T04:36:15.114Z,20.38
2023-05-22T04:39:18.321Z,23.08
2023-05-22T04:42:22.546Z,19.92
2023-05-22T04:45:25.836Z,20.90
2023-05-22T04:48:29.250Z,21.85
2023-05-22T04:51:34.908Z,19.73
2023-05-22T04:54:38.509Z,20.13
2023-05-22T04:57:44.555Z,17.60
2023-05-22T05:00:47.838Z,21.27
2023-05-22T05:03:51.199Z,25.77
2023-05-22T05:06:57.517Z,19.13
2023-05-22T05:10:00.974Z,21.02
2023-05-22T05:13:04.347Z,20.35
2023-05-22T05:16:12.190Z,19.02
2023-05-22T05:19:16.645Z,24.23
2023-05-22T05:22:21.202Z,21.02
2023-05-22T05:25:24.458Z,18.05
2023-05-22T05:28:27.832Z,18.23
2023-05-22T05:31:32.895Z,19.63
2023-05-22T05:34:46.975Z,17.70
2023-05-22T05:38:01.705Z,20.25
2023-05-22T05:41:06.089Z,18.63
2023-05-22T05:44:30.436Z,22.30
2023-05-22T05:47:34.769Z,19.98
2023-05-22T05:50:39.158Z,18.92
2023-05-22T05:53:44.021Z,18.52
2023-05-22T05:56:47.745Z,19.00
2023-05-22T05:59:51.176Z,19.13
2023-05-22T06:03:29.782Z,12.77
2023-05-22T06:06:44.274Z,14.45
2023-05-22T06:09:49.366Z,15.82
2023-05-22T06:12:57.956Z,14.90
2023-05-22T06:16:04.823Z,17.80
2023-05-22T06:19:10.851Z,13.68
2023-05-22T06:22:14.498Z,16.73
2023-05-22T06:25:21.400Z,12.82
2023-05-22T06:28:26.292Z,12.48
2023-05-22T06:31:29.653Z,15.70
2023-05-22T06:34:34.666Z,13.38
2023-05-22T06:37:38.972Z,13.13
2023-05-22T06:40:44.344Z,12.73
2023-05-22T06:43:59.840Z,11.27
2023-05-22T06:47:06.238Z,15.88
2023-05-22T06:50:11.249Z,13.40
2023-05-22T06:53:14.763Z,12.82
2023-05-22T06:56:19.574Z,11.95
2023-05-22T06:59:39.490Z,12.65
2023-05-22T07:02:42.761Z,11.68
2023-05-22T07:05:59.463Z,15.15
2023-05-22T07:09:03.422Z,15.15
2023-05-22T07:12:09.604Z,15.27
2023-05-22T07:15:14.468Z,15.75
2023-05-22T07:18:23.668Z,16.20
2023-05-22T07:21:30.192Z,13.07
2023-05-22T07:24:33.921Z,12.13
2023-05-22T07:27:38.938Z,14.40
2023-05-22T07:30:43.011Z,13.27
2023-05-22T07:33:46.352Z,14.73
2023-05-22T07:36:50.857Z,12.95
2023-05-22T07:39:54.192Z,17.95
2023-05-22T07:43:01.146Z,14.23
2023-05-22T07:46:06.106Z,9.25
2023-05-22T07:49:19.503Z,12.07
2023-05-22T07:52:23.866Z,12.67
2023-05-22T07:55:28.584Z,10.68
2023-05-22T07:58:34.604Z,12.38
2023-05-22T08:01:38.635Z,15.02
2023-05-22T08:04:42.155Z,11.98
2023-05-22T08:07:46.356Z,11.63
2023-05-22T08:11:03.058Z,12.02
2023-05-22T08:14:28.237Z,9.82
2023-05-22T08:17:31.632Z,10.38
2023-05-22T08:20:35.036Z,13.73
2023-05-22T08:23:38.585Z,13.55
2023-05-22T08:26:43.670Z,13.30
2023-05-22T08:29:48.174Z,10.63
2023-05-22T08:32:51.440Z,10.55
2023-05-22T08:35:54.901Z,11.05
2023-05-22T08:38:58.393Z,9.48
2023-05-22T08:42:03.288Z,12.40
2023-05-22T08:45:09.851Z,10.75
2023-05-22T08:48:14.669Z,8.35
2023-05-22T08:51:20.545Z,9.77
2023-05-22T08:54:27.516Z,9.02
2023-05-22T08:57:31.240Z,7.70
2023-05-22T09:00:35.983Z,9.90
2023-05-22T09:03:39.859Z,8.85
2023-05-22T09:06:43.394Z,9.48
2023-05-22T09:09:46.545Z,9.55
2023-05-22T09:13:01.525Z,9.60
2023-05-22T09:16:10.802Z,10.27
2023-05-22T09:19:14.736Z,8.73
2023-05-22T09:22:18.132Z,9.80
2023-05-22T09:25:22.501Z,9.75
2023-05-22T09:28:26.541Z,6.70
2023-05-22T09:34:35.545Z,10.05
2023-05-22T09:37:39.003Z,9.25
2023-05-22T09:40:43.055Z,10.77
2023-05-22T09:43:51.277Z,7.63
2023-05-22T09:46:55.805Z,9.88
2023-05-22T09:50:04.004Z,8.85
2023-05-22T09:53:07.706Z,7.05
2023-05-22T09:56:15.940Z,6.22
2023-05-22T09:59:23.495Z,9.02
2023-05-22T10:02:28.759Z,7.30
2023-05-22T10:05:33.984Z,6.28
2023-05-22T10:08:43.352Z,7.65
2023-05-22T10:11:47.405Z,6.78
2023-05-22T10:14:50.958Z,7.60
2023-05-22T10:17:54.240Z,6.35
2023-05-22T10:21:02.478Z,8.25
2023-05-22T10:27:10.030Z,7.45
2023-05-22T10:30:24.697Z,6.80
2023-05-22T10:33:51.909Z,8.63
2023-05-22T10:37:18.588Z,6.80
2023-05-22T10:40:30.445Z,10.40
2023-05-22T10:43:34.003Z,6.03
2023-05-22T10:46:37.473Z,7.95
2023-05-22T10:49:45.118Z,7.60
2023-05-22T10:52:49.677Z,8.32
2023-05-22T10:55:54.318Z,6.80
2023-05-22T10:58:59.378Z,8.73
2023-05-22T11:02:02.644Z,8.25
2023-05-22T11:05:35.173Z,6.53
2023-05-22T11:08:41.960Z,6.50
2023-05-22T11:11:45.371Z,6.72
2023-05-22T11:14:50.922Z,7.35
2023-05-22T11:17:56.607Z,5.97
2023-05-22T11:21:00.708Z,5.47
2023-05-22T11:24:08.919Z,7.00
2023-05-22T11:27:12.294Z,7.18
2023-05-22T11:30:16.562Z,5.22
2023-05-22T11:33:20.262Z,6.20
2023-05-22T11:36:24.701Z,5.57
2023-05-22T11:39:30.048Z,7.82
2023-05-22T11:42:33.633Z,7.63
2023-05-22T11:45:38.172Z,14.07
2023-05-22T11:48:42.386Z,5.95
2023-05-22T11:51:45.888Z,5.82
2023-05-22T11:54:52.744Z,5.47
2023-05-22T11:57:56.521Z,7.95
2023-05-22T12:01:04.172Z,8.05
2023-05-22T12:04:07.427Z,6.65
2023-05-22T12:07:13.229Z,7.75
2023-05-22T12:10:17.807Z,8.20
2023-05-22T12:13:26.412Z,6.32
2023-05-22T12:16:34.711Z,5.88
2023-05-22T12:19:41.105Z,5.07
2023-05-22T12:22:44.854Z,5.78
2023-05-22T12:25:57.570Z,5.80
2023-05-22T12:29:01.129Z,7.47
2023-05-22T12:32:08.546Z,6.72
2023-05-22T12:35:16.432Z,7.05
2023-05-22T12:38:21.994Z,5.45
2023-05-22T12:41:26.521Z,5.03
2023-05-22T12:44:29.916Z,8.20
2023-05-22T12:47:35.123Z,5.13
2023-05-22T12:50:41.564Z,6.90
2023-05-22T12:53:45.085Z,11.18
2023-05-22T12:56:49.601Z,6.72
2023-05-22T12:59:52.865Z,8.75
2023-05-22T13:02:56.267Z,5.50
2023-05-22T13:06:00.229Z,6.00
2023-05-22T13:09:03.536Z,4.95
2023-05-22T13:12:10.427Z,7.63
2023-05-22T13:15:15.305Z,6.70
2023-05-22T13:18:18.624Z,5.57
2023-05-22T13:21:22.857Z,8.13
2023-05-22T13:24:26.901Z,5.00
2023-05-22T13:27:33.534Z,7.65
2023-05-22T13:33:40.207Z,6.50
2023-05-22T13:36:43.505Z,10.13
2023-05-22T13:39:46.791Z,5.30
2023-05-22T13:42:52.596Z,6.30
2023-05-22T13:45:55.919Z,5.55
2023-05-22T13:49:00.157Z,5.78
2023-05-22T13:52:03.461Z,6.10
2023-05-22T13:55:07.402Z,6.95
2023-05-22T13:58:12.065Z,4.15
2023-05-22T14:01:15.276Z,7.88
2023-05-22T14:04:18.601Z,6.32
2023-05-22T14:07:21.790Z,6.72
2023-05-22T14:10:24.993Z,5.60
2023-05-22T14:13:30.656Z,6.70
2023-05-22T14:16:33.976Z,5.88
2023-05-22T14:19:40.032Z,11.82
2023-05-22T14:22:56.509Z,11.93
2023-05-22T14:26:01.506Z,6.68
2023-05-22T14:29:14.897Z,12.23
2023-05-22T14:32:18.171Z,7.30
2023-05-22T14:35:21.352Z,7.30
2023-05-22T14:38:24.710Z,8.85
2023-05-22T14:41:28.284Z,7.30
2023-05-22T14:44:32.791Z,8.25
2023-05-22T14:47:35.954Z,9.45
2023-05-22T14:50:39.108Z,7.45
2023-05-22T14:53:42.303Z,9.50
2023-05-22T14:56:46.225Z,5.85
2023-05-22T14:59:50.785Z,6.97
2023-05-22T15:02:54.079Z,8.05
2023-05-22T15:05:57.851Z,14.10
2023-05-22T15:09:01.064Z,10.73
2023-05-22T15:12:04.359Z,7.75
2023-05-22T15:15:10.082Z,8.05
2023-05-22T15:18:14.113Z,8.98
2023-05-22T15:21:17.587Z,9.13
2023-05-22T15:24:20.893Z,7.00
2023-05-22T15:27:24.107Z,9.68
2023-05-22T15:34:34.187Z,5.13
2023-05-22T15:37:37.576Z,6.85
2023-05-22T15:40:41.759Z,9.10
2023-05-22T15:43:45.157Z,7.28
2023-05-22T15:46:48.356Z,9.40
2023-05-22T15:49:53.070Z,9.20
2023-05-22T15:52:57.004Z,7.97
2023-05-22T15:56:00.366Z,8.75
2023-05-22T15:59:10.447Z,9.07
2023-05-22T16:02:13.914Z,7.90
2023-05-22T16:05:21.013Z,10.50
2023-05-22T16:08:24.213Z,12.82
2023-05-22T16:11:27.421Z,9.48
2023-05-22T16:14:30.814Z,7.22
2023-05-22T16:17:34.167Z,9.00
2023-05-22T16:20:38.838Z,7.18
2023-05-22T16:23:42.014Z,7.05
2023-05-22T16:26:45.220Z,7.97
2023-05-22T16:29:48.972Z,9.77
2023-05-22T16:32:52.392Z,6.18
2023-05-22T16:35:56.966Z,8.10
2023-05-22T16:39:00.166Z,7.78
2023-05-22T16:42:03.404Z,7.18
2023-05-22T16:45:07.719Z,6.35
2023-05-22T16:48:11.598Z,9.57
2023-05-22T16:51:16.191Z,7.75
2023-05-22T16:54:19.379Z,8.73
2023-05-22T16:57:23.201Z,10.32
2023-05-22T17:00:26.422Z,9.40
2023-05-22T17:03:29.781Z,7.70
2023-05-22T17:06:35.425Z,8.38
2023-05-22T17:09:38.648Z,9.88
2023-05-22T17:12:41.886Z,7.95
2023-05-22T17:15:45.195Z,7.15
2023-05-22T17:18:48.398Z,9.23
2023-05-22T17:21:53.188Z,6.88
2023-05-22T17:24:56.582Z,8.65
2023-05-22T17:27:59.820Z,9.25
2023-05-22T17:31:03.161Z,10.32
2023-05-22T17:34:06.320Z,6.65
2023-05-22T17:37:11.338Z,7.68
2023-05-22T17:40:14.666Z,10.55
2023-05-22T17:43:19.075Z,10.25
2023-05-22T17:46:22.494Z,8.15
2023-05-22T17:49:25.670Z,7.20
2023-05-22T17:52:30.591Z,7.25
2023-05-22T17:55:36.154Z,5.70
2023-05-22T17:58:39.722Z,10.85
2023-05-22T18:01:43.059Z,7.63
2023-05-22T18:04:46.406Z,8.68
2023-05-22T18:07:51.074Z,8.18
2023-05-22T18:10:55.753Z,6.38
2023-05-22T18:13:59.582Z,6.82
2023-05-22T18:17:03.890Z,7.82
2023-05-22T18:20:08.326Z,8.75
2023-05-22T18:23:13.133Z,8.32
2023-05-22T18:26:16.487Z,6.78
2023-05-22T18:29:19.847Z,8.35
2023-05-22T18:32:23.162Z,9.40
2023-05-22T18:35:26.693Z,9.00
2023-05-22T18:38:31.425Z,9.90
2023-05-22T18:41:34.687Z,8.77
2023-05-22T18:44:37.953Z,9.25
2023-05-22T18:47:41.568Z,10.35
2023-05-22T18:50:44.839Z,9.60
2023-05-22T18:53:51.609Z,8.85
2023-05-22T18:56:54.845Z,10.63
2023-05-22T18:59:58.753Z,10.43
2023-05-22T19:03:02.070Z,9.70
2023-05-22T19:06:05.852Z,9.55
2023-05-22T19:09:10.870Z,10.65
2023-05-22T19:12:14.066Z,9.93
2023-05-22T19:15:17.408Z,9.20
2023-05-22T19:18:20.756Z,12.98
2023-05-22T19:21:24.465Z,10.20
2023-05-22T19:24:29.086Z,9.75
2023-05-22T19:27:32.330Z,11.07
2023-05-22T19:30:35.584Z,9.85
2023-05-22T19:33:38.827Z,9.00
2023-05-22T19:36:42.610Z,9.48
2023-05-22T19:39:47.394Z,9.13
2023-05-22T19:42:50.599Z,9.98
2023-05-22T19:45:54.277Z,8.50
2023-05-22T19:48:57.833Z,10.50
2023-05-22T19:52:01.323Z,10.65
2023-05-22T19:55:06.599Z,11.55
2023-05-22T19:58:09.743Z,12.25
2023-05-22T20:01:12.946Z,8.95
2023-05-22T20:04:16.772Z,10.35
2023-05-22T20:07:20.229Z,11.05
2023-05-22T20:10:25.757Z,8.82
2023-05-22T20:13:29.552Z,10.43
2023-05-22T20:16:32.965Z,12.30
2023-05-22T20:19:36.307Z,11.55
2023-05-22T20:22:39.676Z,11.38
2023-05-22T20:25:44.244Z,9.23
2023-05-22T20:28:47.459Z,11.70
2023-05-22T20:31:54.431Z,12.52
2023-05-22T20:34:57.679Z,13.13
2023-05-22T20:38:03.724Z,12.00
2023-05-22T20:41:09.820Z,9.32
2023-05-22T20:44:13.258Z,10.40
2023-05-22T20:47:16.844Z,9.90
2023-05-22T20:50:20.167Z,11.32
2023-05-22T20:53:24.453Z,15.98
2023-05-22T20:56:32.114Z,12.98
2023-05-22T20:59:38.530Z,11.27
2023-05-22T21:02:41.823Z,11.85
2023-05-22T21:05:45.134Z,12.43
2023-05-22T21:08:48.695Z,11.05
2023-05-22T21:11:53.374Z,13.20
2023-05-22T21:14:56.491Z,12.45
2023-05-22T21:18:00.077Z,12.32
2023-05-22T21:21:03.428Z,12.35
2023-05-22T21:24:07.648Z,11.45
2023-05-22T21:27:12.194Z,11.82
2023-05-22T21:30:16.172Z,14.00
2023-05-22T21:34:33.974Z,12.05
2023-05-22T21:37:37.299Z,15.27
2023-05-22T21:40:42.552Z,13.15
2023-05-22T21:43:47.349Z,13.13
2023-05-22T21:46:50.756Z,11.27
2023-05-22T21:49:55.413Z,10.50
2023-05-22T21:52:58.547Z,13.05
2023-05-22T21:56:02.205Z,10.77
2023-05-22T21:59:10.284Z,11.82
2023-05-22T22:02:13.576Z,14.88
2023-05-22T22:05:18.793Z,13.05
2023-05-22T22:08:22.038Z,11.77
2023-05-22T22:11:26.429Z,12.25
2023-05-22T22:14:30.300Z,13.70
2023-05-22T22:17:34.761Z,12.50
2023-05-22T22:20:44.756Z,12.52
2023-05-22T22:23:48.597Z,12.90
2023-05-22T22:26:52.815Z,13.45
2023-05-22T22:29:56.084Z,12.07
2023-05-22T22:32:59.581Z,12.45
2023-05-22T22:36:04.387Z,10.30
2023-05-22T22:39:07.947Z,13.85
2023-05-22T22:42:11.113Z,11.07
2023-05-22T22:45:14.629Z,12.20
2023-05-22T22:48:22.202Z,11.80
2023-05-22T22:51:26.765Z,14.82
2023-05-22T22:54:30.392Z,12.70
2023-05-22T22:57:33.666Z,12.32
2023-05-22T23:00:37.416Z,12.00
2023-05-22T23:03:40.993Z,14.27
2023-05-22T23:06:46.097Z,12.75
2023-05-22T23:09:49.224Z,10.18
2023-05-22T23:12:52.343Z,13.63
2023-05-22T23:15:55.730Z,11.60
2023-05-22T23:18:59.002Z,11.77
2023-05-22T23:22:03.630Z,10.98
2023-05-22T23:25:07.684Z,13.35
2023-05-22T23:28:10.828Z,16.40
2023-05-22T23:31:14.635Z,11.38
2023-05-22T23:34:18.170Z,14.90
2023-05-22T23:37:22.914Z,11.55
2023-05-22T23:40:26.067Z,12.88
2023-05-22T23:43:29.228Z,14.40
2023-05-22T23:46:32.674Z,15.63
2023-05-22T23:49:36.024Z,16.38
2023-05-22T23:52:40.776Z,12.57
2023-05-22T23:55:43.881Z,14.93
2023-05-22T23:58:47.042Z,13.35
